Time;durP1;ratioP1;P1;durP2;ratioP2;P2;SDS_P1;SDS_P2;PMS_P1;PMS_P2;Temp;Humidity;BMP_temperature;BMP_pressure;BME280_temperature;BME280_humidity;BME280_pressure;Samples;Min_cycle;Max_cycle;Signal;HPM_P1;HPM_P2
2021/04/14 00:01:58;;;;;;;9.73;4.25;;;1.00;66.50;;;;;;4997109;28;20030;-78
2021/04/14 00:04:25;;;;;;;7.28;4.78;;;1.00;66.50;;;;;;4996666;28;20072;-77
2021/04/14 00:06:54;;;;;;;7.22;4.75;;;1.10;66.50;;;;;;4997005;28;20041;-78
2021/04/14 00:09:19;;;;;;;6.82;4.60;;;1.00;66.40;;;;;;5014694;28;20018;-78
2021/04/14 00:11:45;;;;;;;6.35;4.03;;;1.00;66.60;;;;;;4996999;28;20391;-77
2021/04/14 00:14:11;;;;;;;7.75;4.63;;;1.10;66.70;;;;;;4997025;28;20049;-77
2021/04/14 00:16:37;;;;;;;9.15;4.80;;;1.10;66.40;;;;;;4996949;28;20022;-78
2021/04/14 00:19:03;;;;;;;10.75;4.90;;;1.10;66.30;;;;;;4996893;28;20026;-78
2021/04/14 00:21:30;;;;;;;7.13;4.10;;;1.10;66.10;;;;;;4997000;28;20113;-79
2021/04/14 00:23:55;;;;;;;11.65;4.95;;;1.00;66.20;;;;;;4996756;28;20033;-77
2021/04/14 00:26:22;;;;;;;11.13;4.72;;;1.10;66.20;;;;;;4996482;28;20029;-76
2021/04/14 00:28:47;;;;;;;8.05;4.72;;;1.10;66.20;;;;;;5014146;28;20018;-77
2021/04/14 00:31:14;;;;;;;7.68;4.60;;;1.10;66.20;;;;;;4996856;28;20053;-77
2021/04/14 00:33:41;;;;;;;9.15;4.72;;;1.00;66.20;;;;;;5014110;28;20029;-77
2021/04/14 00:36:07;;;;;;;6.07;4.40;;;0.90;66.40;;;;;;4996420;28;20022;-77
2021/04/14 00:38:33;;;;;;;8.18;4.75;;;0.90;66.40;;;;;;4999832;28;20026;-78
2021/04/14 00:41:13;;;;;;;9.60;5.30;;;1.00;66.50;;;;;;5002360;28;20017;-77
2021/04/14 00:43:39;;;;;;;7.95;5.13;;;0.90;66.50;;;;;;4999362;28;20069;-76
2021/04/14 00:46:06;;;;;;;7.20;4.70;;;0.90;66.80;;;;;;4998507;28;20478;-77
2021/04/14 00:48:32;;;;;;;7.22;4.28;;;1.00;67.80;;;;;;4997446;28;20037;-77
2021/04/14 00:50:58;;;;;;;8.98;5.30;;;1.00;66.90;;;;;;4998055;28;20025;-76
2021/04/14 00:53:24;;;;;;;7.85;5.30;;;0.90;67.10;;;;;;5014134;28;20128;-76
2021/04/14 00:55:50;;;;;;;7.55;4.75;;;0.90;67.20;;;;;;5014004;28;20451;-76
2021/04/14 00:58:16;;;;;;;9.68;4.35;;;0.90;67.40;;;;;;4996552;28;20032;-77
2021/04/14 01:00:49;;;;;;;13.85;5.72;;;0.90;67.60;;;;;;4996288;28;20113;-77
2021/04/14 01:03:16;;;;;;;10.77;5.47;;;1.00;67.80;;;;;;4997536;28;20026;-77
2021/04/14 01:05:42;;;;;;;9.80;4.90;;;1.00;67.80;;;;;;4993837;28;20499;-76
2021/04/14 01:08:08;;;;;;;9.82;4.78;;;1.00;67.80;;;;;;4993831;28;20077;-77
2021/04/14 01:10:34;;;;;;;10.57;4.97;;;0.90;67.90;;;;;;4995968;28;20022;-77
2021/04/14 01:13:01;;;;;;;7.07;4.53;;;1.00;68.00;;;;;;4995328;28;20698;-77
2021/04/14 01:15:32;;;;;;;10.85;4.13;;;1.00;68.00;;;;;;4994443;28;20421;-78
2021/04/14 01:17:58;;;;;;;7.70;4.60;;;1.00;67.90;;;;;;4995549;28;20081;-78
2021/04/14 01:20:24;;;;;;;5.45;3.95;;;0.90;67.80;;;;;;4992840;28;20024;-78
2021/04/14 01:22:49;;;;;;;7.75;4.15;;;0.90;67.70;;;;;;4993002;28;20022;-78
2021/04/14 01:25:22;;;;;;;7.38;4.50;;;0.90;67.50;;;;;;4995443;28;20041;-77
2021/04/14 01:27:48;;;;;;;6.85;4.28;;;0.80;67.40;;;;;;4993575;28;20050;-78
2021/04/14 01:30:21;;;;;;;7.82;4.43;;;0.80;67.50;;;;;;4993010;28;20069;-78
2021/04/14 01:32:47;;;;;;;5.75;4.03;;;0.80;67.60;;;;;;4992874;28;20038;-77
2021/04/14 01:35:13;;;;;;;8.68;4.18;;;0.80;67.80;;;;;;4994009;28;20097;-79
2021/04/14 01:37:40;;;;;;;8.65;4.47;;;0.80;67.70;;;;;;4993279;28;20030;-78
2021/04/14 01:40:10;;;;;;;7.28;4.43;;;0.70;67.70;;;;;;4993162;28;20403;-79
2021/04/14 01:42:36;;;;;;;7.22;4.20;;;0.70;67.70;;;;;;4993398;28;20483;-78
2021/04/14 01:45:04;;;;;;;10.68;5.43;;;0.70;67.60;;;;;;4993308;28;20077;-79
2021/04/14 01:47:29;;;;;;;10.45;5.40;;;0.70;67.50;;;;;;4992716;28;20061;-77
2021/04/14 01:49:55;;;;;;;8.55;4.43;;;0.70;67.40;;;;;;4992596;28;20026;-77
2021/04/14 01:52:20;;;;;;;7.90;4.55;;;0.70;67.40;;;;;;4992240;28;20491;-77
2021/04/14 01:54:46;;;;;;;9.18;4.90;;;0.60;67.40;;;;;;4992337;28;20384;-77
2021/04/14 01:57:12;;;;;;;9.60;5.35;;;0.60;67.40;;;;;;4992388;28;20495;-77
2021/04/14 01:59:37;;;;;;;7.93;4.38;;;0.60;67.40;;;;;;4992203;28;20173;-77
2021/04/14 02:02:04;;;;;;;7.60;4.57;;;0.60;67.50;;;;;;4992272;28;20102;-77
2021/04/14 02:04:30;;;;;;;7.05;4.43;;;0.60;67.50;;;;;;4994249;28;20031;-77
2021/04/14 02:06:56;;;;;;;7.30;4.95;;;0.60;67.60;;;;;;4995579;28;20133;-76
2021/04/14 02:09:22;;;;;;;10.82;5.95;;;0.60;67.50;;;;;;5012910;28;20105;-76
2021/04/14 02:11:47;;;;;;;8.73;4.90;;;0.50;67.40;;;;;;4995255;28;20037;-76
2021/04/14 02:14:13;;;;;;;11.30;5.45;;;0.50;67.70;;;;;;5012917;28;20443;-77
2021/04/14 02:16:38;;;;;;;10.35;5.32;;;0.40;67.90;;;;;;5013017;28;20021;-76
2021/04/14 02:19:05;;;;;;;7.15;4.72;;;0.40;67.90;;;;;;4995422;28;20032;-76
2021/04/14 02:21:31;;;;;;;5.38;3.75;;;0.40;68.00;;;;;;4995397;28;20032;-77
2021/04/14 02:23:56;;;;;;;9.23;4.40;;;0.40;68.00;;;;;;4995109;28;20495;-76
2021/04/14 02:26:23;;;;;;;7.20;4.28;;;0.40;68.10;;;;;;4995325;28;20090;-77
2021/04/14 02:28:50;;;;;;;5.63;4.30;;;0.30;68.30;;;;;;4994925;28;20026;-77
2021/04/14 02:31:29;;;;;;;8.65;4.47;;;0.30;68.50;;;;;;4995389;28;20030;-77
2021/04/14 02:34:15;;;;;;;9.70;4.45;;;0.20;68.60;;;;;;4996133;28;20038;-77
2021/04/14 02:36:41;;;;;;;9.75;5.10;;;0.20;68.70;;;;;;4998192;28;20383;-76
2021/04/14 02:39:09;;;;;;;6.60;4.07;;;0.10;68.90;;;;;;4998664;28;20026;-75
2021/04/14 02:41:35;;;;;;;6.03;3.75;;;0.10;69.00;;;;;;4999030;28;20030;-76
2021/04/14 02:44:01;;;;;;;6.30;4.00;;;0.10;69.20;;;;;;4998764;28;20433;-75
2021/04/14 02:46:26;;;;;;;10.07;4.80;;;0.00;69.40;;;;;;5016463;28;20026;-77
2021/04/14 02:48:53;;;;;;;8.18;4.70;;;0.00;69.40;;;;;;4998693;28;20022;-77
2021/04/14 02:51:19;;;;;;;8.05;4.30;;;0.00;69.70;;;;;;4998994;28;20371;-74
2021/04/14 02:53:45;;;;;;;6.47;3.78;;;0.00;69.90;;;;;;5016743;28;20033;-79
2021/04/14 02:56:10;;;;;;;7.85;4.18;;;0.00;69.80;;;;;;5016519;28;20558;-77
2021/04/14 02:58:36;;;;;;;7.18;4.45;;;0.00;69.80;;;;;;4999507;28;20417;-76
2021/04/14 03:01:02;;;;;;;7.88;3.83;;;0.00;69.50;;;;;;5016890;28;20026;-73
2021/04/14 03:03:28;;;;;;;7.78;3.80;;;0.10;69.40;;;;;;5000475;28;20382;-76
2021/04/14 03:05:54;;;;;;;6.40;4.22;;;0.00;69.20;;;;;;5002242;28;20129;-74
2021/04/14 03:08:20;;;;;;;7.85;4.40;;;0.00;69.10;;;;;;5000289;28;20069;-73
2021/04/14 03:10:46;;;;;;;6.88;4.18;;;0.00;69.00;;;;;;5016883;28;20033;-75
2021/04/14 03:13:12;;;;;;;5.65;3.92;;;0.00;69.00;;;;;;5001100;28;20044;-76
2021/04/14 03:15:40;;;;;;;5.97;3.75;;;-0.10;69.10;;;;;;5007343;28;20025;-75
2021/04/14 03:18:07;;;;;;;5.88;3.95;;;-0.10;69.20;;;;;;5020507;28;20076;-75
2021/04/14 03:20:33;;;;;;;7.00;4.00;;;-0.10;69.30;;;;;;4998755;28;20113;-74
2021/04/14 03:22:59;;;;;;;8.82;4.28;;;-0.10;69.50;;;;;;4998115;28;20033;-75
2021/04/14 03:25:27;;;;;;;8.88;4.45;;;-0.10;69.50;;;;;;4998151;28;20026;-76
2021/04/14 03:27:53;;;;;;;7.47;4.05;;;0.00;69.40;;;;;;4998123;28;20034;-74
2021/04/14 03:30:19;;;;;;;6.47;4.10;;;0.00;69.30;;;;;;4998111;28;20025;-74
2021/04/14 03:32:48;;;;;;;7.60;4.15;;;0.10;69.30;;;;;;4997732;28;20029;-74
2021/04/14 03:35:15;;;;;;;7.78;4.43;;;0.10;69.10;;;;;;4997886;28;20378;-73
2021/04/14 03:37:41;;;;;;;6.25;4.07;;;0.10;68.80;;;;;;5015303;28;20045;-73
2021/04/14 03:40:08;;;;;;;7.03;4.45;;;0.10;68.70;;;;;;4997882;28;20026;-74
2021/04/14 03:42:34;;;;;;;9.73;4.82;;;0.20;68.50;;;;;;4997771;28;20474;-74
2021/04/14 03:45:01;;;;;;;7.75;4.22;;;0.20;68.40;;;;;;4997179;28;20026;-73
2021/04/14 03:47:27;;;;;;;7.57;4.30;;;0.20;68.30;;;;;;4997436;28;20028;-73
2021/04/14 03:49:53;;;;;;;11.65;4.78;;;0.20;68.30;;;;;;4997211;28;20117;-74
2021/04/14 03:52:20;;;;;;;6.13;4.55;;;0.20;68.00;;;;;;4996970;28;20034;-75
2021/04/14 03:54:45;;;;;;;7.53;4.15;;;0.10;67.90;;;;;;4996816;28;20026;-74
2021/04/14 03:57:11;;;;;;;6.28;4.30;;;0.00;67.80;;;;;;5014694;28;20518;-74
2021/04/14 03:59:36;;;;;;;7.30;4.00;;;0.00;68.00;;;;;;4997262;28;20071;-74
2021/04/14 04:02:02;;;;;;;6.45;4.00;;;0.00;67.90;;;;;;5014667;28;20390;-75
2021/04/14 04:04:27;;;;;;;6.85;4.28;;;0.00;68.10;;;;;;5014403;28;20026;-75
2021/04/14 04:06:53;;;;;;;6.22;3.55;;;-0.10;68.20;;;;;;4996910;28;20510;-76
2021/04/14 04:09:19;;;;;;;7.13;4.72;;;-0.10;68.10;;;;;;5015074;28;20467;-76
2021/04/14 04:11:44;;;;;;;8.50;4.55;;;-0.20;68.30;;;;;;4997046;28;20028;-74
2021/04/14 04:14:10;;;;;;;8.82;4.68;;;-0.20;68.40;;;;;;5014834;28;20176;-75
2021/04/14 04:16:36;;;;;;;7.93;4.50;;;-0.20;68.40;;;;;;5014517;28;20022;-75
2021/04/14 04:19:01;;;;;;;6.63;3.85;;;-0.20;68.70;;;;;;4996839;28;20390;-75
2021/04/14 04:21:27;;;;;;;11.75;5.75;;;-0.20;68.80;;;;;;4996897;28;20356;-74
2021/04/14 04:23:53;;;;;;;8.68;4.38;;;-0.20;68.90;;;;;;4996408;28;20100;-75
2021/04/14 04:26:19;;;;;;;7.68;3.90;;;-0.20;68.80;;;;;;4996976;28;20060;-75
2021/04/14 04:28:45;;;;;;;7.43;3.58;;;-0.30;68.70;;;;;;4996773;28;20026;-75
2021/04/14 04:31:11;;;;;;;7.88;3.40;;;-0.30;68.90;;;;;;4997072;28;20032;-76
2021/04/14 04:33:36;;;;;;;6.45;3.85;;;-0.50;69.20;;;;;;4996671;28;20134;-76
2021/04/14 04:36:03;;;;;;;5.03;3.45;;;-0.50;69.40;;;;;;4996742;28;20565;-76
2021/04/14 04:38:28;;;;;;;8.45;4.00;;;-0.50;69.50;;;;;;5014502;28;20041;-76
2021/04/14 04:40:54;;;;;;;7.45;4.20;;;-0.50;69.70;;;;;;4996898;28;20026;-77
2021/04/14 04:43:21;;;;;;;8.18;4.28;;;-0.50;70.00;;;;;;5014615;28;20034;-75
2021/04/14 04:45:47;;;;;;;7.55;4.45;;;-0.40;70.20;;;;;;5014476;28;20017;-76
2021/04/14 04:48:13;;;;;;;8.68;4.43;;;-0.30;71.20;;;;;;5014083;28;20501;-77
2021/04/14 04:50:39;;;;;;;6.15;4.03;;;-0.30;70.20;;;;;;4996505;28;20445;-77
2021/04/14 04:53:12;;;;;;;11.95;4.13;;;-0.20;70.00;;;;;;4996409;28;20030;-77
2021/04/14 04:55:40;;;;;;;6.70;4.20;;;-0.10;69.90;;;;;;5016350;28;20025;-78
2021/04/14 04:58:06;;;;;;;9.38;4.65;;;0.00;69.50;;;;;;5006723;28;20026;-77
2021/04/14 05:00:33;;;;;;;8.52;5.18;;;0.10;69.20;;;;;;4997671;28;20022;-76
2021/04/14 05:02:58;;;;;;;11.38;5.85;;;0.10;68.80;;;;;;4996520;28;20033;-77
2021/04/14 05:05:28;;;;;;;10.35;6.35;;;0.20;68.40;;;;;;5013784;28;20046;-75
2021/04/14 05:07:53;;;;;;;11.18;5.97;;;0.10;68.00;;;;;;5013685;28;20411;-76
2021/04/14 05:10:20;;;;;;;18.50;7.50;;;0.20;67.70;;;;;;4996202;28;20022;-76
2021/04/14 05:12:49;;;;;;;19.55;7.45;;;0.10;67.70;;;;;;4996265;28;20037;-75
2021/04/14 05:15:15;;;;;;;15.20;6.35;;;0.10;67.90;;;;;;5013633;28;20024;-75
2021/04/14 05:17:41;;;;;;;11.90;6.85;;;0.10;68.00;;;;;;4995914;28;20116;-75
2021/04/14 05:20:06;;;;;;;16.10;7.40;;;0.20;67.80;;;;;;4996001;28;20084;-75
2021/04/14 05:22:32;;;;;;;11.93;6.28;;;0.20;67.80;;;;;;4995705;28;20443;-76
2021/04/14 05:24:58;;;;;;;10.00;5.63;;;0.30;67.80;;;;;;5013330;28;20036;-77
2021/04/14 05:27:25;;;;;;;10.25;5.75;;;0.30;67.60;;;;;;4995601;28;20057;-76
2021/04/14 05:29:51;;;;;;;8.18;5.13;;;0.30;67.50;;;;;;4995717;28;20030;-75
2021/04/14 05:32:17;;;;;;;11.65;5.57;;;0.40;67.50;;;;;;4995436;28;20386;-75
2021/04/14 05:34:43;;;;;;;13.02;6.15;;;0.40;67.30;;;;;;4995485;28;20033;-76
2021/04/14 05:37:09;;;;;;;17.27;8.90;;;0.40;67.10;;;;;;4995128;28;20160;-74
2021/04/14 05:39:34;;;;;;;18.58;8.57;;;0.40;67.30;;;;;;4995458;28;20065;-76
2021/04/14 05:42:00;;;;;;;10.80;6.85;;;0.40;67.20;;;;;;4995129;28;20022;-76
2021/04/14 05:44:25;;;;;;;15.27;9.13;;;0.40;67.20;;;;;;5013175;28;20482;-75
2021/04/14 05:46:51;;;;;;;17.90;9.52;;;0.50;67.20;;;;;;4995120;28;20495;-75
2021/04/14 05:49:16;;;;;;;17.08;8.13;;;0.50;67.20;;;;;;4995141;28;20511;-76
2021/04/14 05:51:42;;;;;;;14.90;8.02;;;0.60;67.40;;;;;;4995363;28;20028;-74
2021/04/14 05:54:08;;;;;;;14.02;7.38;;;0.60;67.30;;;;;;5013000;28;20034;-75
2021/04/14 05:56:34;;;;;;;10.93;6.25;;;0.70;67.30;;;;;;5013051;28;20014;-76
2021/04/14 05:59:00;;;;;;;8.80;5.30;;;0.80;67.10;;;;;;5012819;28;20026;-74
2021/04/14 06:01:29;;;;;;;11.25;5.63;;;0.90;66.80;;;;;;5012918;28;20030;-74
2021/04/14 06:03:54;;;;;;;10.02;5.18;;;0.90;66.40;;;;;;5012898;28;20050;-75
2021/04/14 06:06:20;;;;;;;9.55;5.25;;;1.00;66.20;;;;;;5012750;28;20456;-76
2021/04/14 06:08:46;;;;;;;11.77;6.20;;;1.10;66.10;;;;;;5015304;28;20029;-78
2021/04/14 06:11:12;;;;;;;11.40;5.85;;;1.20;65.90;;;;;;5017057;28;20129;-78
2021/04/14 06:13:38;;;;;;;10.98;5.65;;;1.30;65.90;;;;;;5016799;28;20091;-78
2021/04/14 06:16:06;;;;;;;12.05;6.10;;;1.40;65.60;;;;;;5016762;28;20076;-75
2021/04/14 06:18:31;;;;;;;8.85;4.82;;;1.50;65.40;;;;;;5016664;28;20026;-77
2021/04/14 06:20:59;;;;;;;7.53;4.57;;;1.60;65.00;;;;;;5016476;28;20040;-77
2021/04/14 06:23:25;;;;;;;7.55;4.07;;;1.70;64.70;;;;;;5016458;28;20044;-75
2021/04/14 06:28:24;;;;;;;7.70;4.30;;;2.00;63.90;;;;;;5016644;28;20034;-73
2021/04/14 06:30:51;;;;;;;6.57;4.43;;;2.10;63.80;;;;;;5016425;28;20170;-75
2021/04/14 06:33:19;;;;;;;8.93;4.47;;;2.30;63.60;;;;;;5016330;28;20117;-77
2021/04/14 06:35:46;;;;;;;9.10;3.78;;;2.60;63.20;;;;;;5016220;28;20097;-76
2021/04/14 06:38:13;;;;;;;11.50;5.47;;;2.80;62.70;;;;;;5016218;28;20034;-78
2021/04/14 06:41:00;;;;;;;8.75;5.25;;;3.00;61.70;;;;;;5016071;28;20026;-75
2021/04/14 06:43:56;;;;;;;9.50;4.78;;;3.10;60.20;;;;;;5016278;28;20038;-75
2021/04/14 06:46:28;;;;;;;9.55;5.05;;;3.20;59.50;;;;;;4998644;28;20593;-77
2021/04/14 06:49:26;;;;;;;12.65;6.18;;;3.10;59.10;;;;;;4998368;28;20030;-77
2021/04/14 06:52:07;;;;;;;13.25;6.82;;;3.10;59.00;;;;;;4998120;28;20048;-76
2021/04/14 06:54:52;;;;;;;11.80;6.32;;;3.20;59.20;;;;;;4998578;28;20084;-75
2021/04/14 06:57:27;;;;;;;10.82;5.88;;;3.10;59.00;;;;;;4998576;28;20052;-78
2021/04/14 07:00:19;;;;;;;;;;;3.00;58.80;;;;;;4998695;28;20040;-76
2021/04/14 07:02:51;;;;;;;15.85;6.28;;;2.80;59.30;;;;;;4993364;28;19959;-75
2021/04/14 07:05:22;;;;;;;13.60;6.50;;;2.70;60.20;;;;;;4998069;28;20042;-76
2021/04/14 07:07:51;;;;;;;17.33;7.05;;;2.80;61.10;;;;;;4997883;28;20033;-75
2021/04/14 07:10:25;;;;;;;10.70;6.28;;;2.90;61.50;;;;;;4998044;28;20040;-76
2021/04/14 07:12:53;;;;;;;11.40;6.20;;;2.90;61.50;;;;;;4997724;28;20040;-73
2021/04/14 07:15:21;;;;;;;14.27;6.10;;;2.90;62.10;;;;;;4997824;28;20411;-72
2021/04/14 07:18:25;;;;;;;12.82;6.13;;;3.10;61.80;;;;;;4997911;28;20033;-76
2021/04/14 07:20:59;;;;;;;17.90;5.43;;;3.20;60.40;;;;;;4997140;28;20024;-77
2021/04/14 07:23:33;;;;;;;10.15;5.75;;;3.30;59.80;;;;;;5015424;28;20030;-78
2021/04/14 07:26:09;;;;;;;14.55;6.03;;;3.30;59.30;;;;;;5015538;28;20058;-75
2021/04/14 07:29:10;;;;;;;9.15;5.40;;;3.50;59.20;;;;;;5015442;28;20018;-76
2021/04/14 07:32:08;;;;;;;10.25;5.72;;;3.60;58.60;;;;;;5015362;28;20026;-75
2021/04/14 07:35:10;;;;;;;9.95;5.70;;;3.50;59.10;;;;;;4997649;28;20445;-76
2021/04/14 07:37:44;;;;;;;14.07;6.45;;;3.60;58.90;;;;;;5014981;28;20503;-78
2021/04/14 07:40:17;;;;;;;10.73;5.07;;;3.70;59.00;;;;;;5015194;28;20077;-78
2021/04/14 07:42:53;;;;;;;8.10;5.40;;;3.80;59.00;;;;;;5015095;28;20034;-77
2021/04/14 07:45:31;;;;;;;9.65;5.75;;;3.80;58.90;;;;;;5015090;28;20018;-74
2021/04/14 07:48:04;;;;;;;7.97;4.80;;;3.80;59.20;;;;;;5015069;28;20101;-76
2021/04/14 07:50:53;;;;;;;9.43;4.88;;;4.00;59.50;;;;;;5014981;28;20073;-75
2021/04/14 07:53:22;;;;;;;8.20;4.93;;;4.20;60.20;;;;;;5014801;28;20120;-74
2021/04/14 07:56:02;;;;;;;10.30;6.13;;;4.60;60.50;;;;;;5014773;28;20056;-74
2021/04/14 07:58:29;;;;;;;13.80;5.88;;;4.50;59.00;;;;;;5014747;28;20018;-72
2021/04/14 08:00:54;;;;;;;12.98;5.25;;;4.60;58.70;;;;;;5014646;28;20026;-75
2021/04/14 08:03:26;;;;;;;9.73;5.38;;;4.90;59.40;;;;;;5014734;28;20029;-73
2021/04/14 08:05:51;;;;;;;7.75;5.40;;;5.20;57.90;;;;;;5014529;28;20064;-74
2021/04/14 08:08:30;;;;;;;8.55;5.15;;;5.10;56.40;;;;;;5014728;28;20022;-76
2021/04/14 08:11:04;;;;;;;16.67;5.25;;;5.10;57.50;;;;;;5014662;28;20030;-72
2021/04/14 08:13:36;;;;;;;12.95;6.20;;;5.10;62.30;;;;;;5014399;28;20037;-74
2021/04/14 08:16:14;;;;;;;10.23;4.80;;;6.00;68.60;;;;;;5014578;28;20030;-72
2021/04/14 08:18:52;;;;;;;9.55;5.18;;;6.80;63.50;;;;;;5014312;28;20022;-73
2021/04/14 08:21:35;;;;;;;10.13;4.65;;;7.50;58.10;;;;;;5014205;28;20109;-73
2021/04/14 08:24:05;;;;;;;7.63;4.25;;;8.10;55.40;;;;;;5014247;28;20383;-73
2021/04/14 08:26:32;;;;;;;8.57;4.95;;;8.50;52.20;;;;;;4996699;28;20364;-73
2021/04/14 08:29:10;;;;;;;9.35;4.22;;;8.40;51.60;;;;;;5014269;28;20022;-71
2021/04/14 08:31:48;;;;;;;9.00;4.55;;;8.80;51.30;;;;;;5013130;28;20057;-74
2021/04/14 08:34:28;;;;;;;6.85;4.32;;;9.20;49.80;;;;;;5013955;28;20410;-73
2021/04/14 08:37:01;;;;;;;10.25;5.43;;;9.50;49.10;;;;;;5013705;28;20018;-72
2021/04/14 08:39:40;;;;;;;8.70;4.05;;;9.30;46.60;;;;;;5013766;28;20095;-73
2021/04/14 08:42:13;;;;;;;10.40;4.72;;;9.30;47.80;;;;;;5013912;28;20467;-72
2021/04/14 08:44:42;;;;;;;8.88;4.47;;;9.60;48.10;;;;;;5013964;28;20105;-73
2021/04/14 08:47:22;;;;;;;10.18;4.15;;;9.60;47.90;;;;;;5013695;28;20084;-72
2021/04/14 08:49:51;;;;;;;6.47;3.72;;;9.50;47.30;;;;;;5013436;28;20032;-72
2021/04/14 08:52:21;;;;;;;9.68;3.95;;;9.40;47.40;;;;;;5013542;28;20033;-72
2021/04/14 08:54:47;;;;;;;7.82;4.38;;;9.60;47.50;;;;;;5013448;28;20146;-73
2021/04/14 08:57:14;;;;;;;10.43;4.15;;;9.70;46.20;;;;;;5013703;28;20494;-73
2021/04/14 08:59:41;;;;;;;7.07;3.78;;;9.80;46.30;;;;;;5013496;28;20050;-72
2021/04/14 09:02:09;;;;;;;5.78;3.53;;;9.80;46.30;;;;;;5013507;28;20046;-73
2021/04/14 09:04:36;;;;;;;9.73;3.70;;;10.10;46.00;;;;;;5013499;28;20033;-72
2021/04/14 09:07:04;;;;;;;6.10;3.60;;;10.20;44.30;;;;;;5013891;28;20451;-73
2021/04/14 09:09:31;;;;;;;9.18;3.15;;;10.40;43.90;;;;;;5014204;28;20072;-73
2021/04/14 09:12:01;;;;;;;7.00;3.00;;;10.40;42.50;;;;;;5013507;28;20030;-72
2021/04/14 09:14:30;;;;;;;6.13;3.15;;;10.50;41.90;;;;;;5013521;28;20025;-72
2021/04/14 09:17:12;;;;;;;6.63;2.90;;;10.60;41.50;;;;;;5013183;28;20054;-72
2021/04/14 09:19:38;;;;;;;8.90;3.33;;;10.40;40.30;;;;;;5013398;28;20114;-74
2021/04/14 09:22:28;;;;;;;6.78;3.03;;;10.20;39.70;;;;;;5013518;28;20033;-73
2021/04/14 09:25:11;;;;;;;7.20;3.17;;;10.20;40.40;;;;;;4995703;28;20463;-72
2021/04/14 09:27:37;;;;;;;5.43;2.72;;;10.40;40.70;;;;;;5013335;28;20038;-71
2021/04/14 09:30:09;;;;;;;7.82;2.70;;;10.40;40.90;;;;;;5013279;28;20502;-73
2021/04/14 09:32:51;;;;;;;6.20;3.03;;;10.50;41.00;;;;;;5013223;28;20029;-72
2021/04/14 09:35:28;;;;;;;7.32;2.40;;;10.40;39.80;;;;;;5013200;28;20017;-73
2021/04/14 09:38:27;;;;;;;6.07;2.40;;;10.30;39.00;;;;;;5013176;28;20022;-72
2021/04/14 09:41:06;;;;;;;4.60;2.17;;;10.20;38.90;;;;;;5013229;28;20034;-73
2021/04/14 09:43:37;;;;;;;5.63;2.15;;;10.20;38.10;;;;;;5012753;28;20041;-73
2021/04/14 09:46:09;;;;;;;5.90;1.80;;;10.20;38.70;;;;;;5013274;28;20486;-72
2021/04/14 09:48:44;;;;;;;10.63;2.83;;;10.00;37.30;;;;;;5013524;28;20029;-75
2021/04/14 09:51:26;;;;;;;4.60;2.67;;;9.80;37.50;;;;;;5003595;28;20022;-72
2021/04/14 09:53:58;;;;;;;5.10;2.53;;;9.50;36.60;;;;;;5012557;28;20053;-74
2021/04/14 09:56:25;;;;;;;5.75;2.30;;;9.10;35.90;;;;;;5012346;28;20018;-74
2021/04/14 09:58:56;;;;;;;5.85;2.20;;;8.70;35.20;;;;;;5012530;28;20022;-73
2021/04/14 10:01:29;;;;;;;4.95;2.08;;;8.70;35.00;;;;;;5012830;28;20026;-74
2021/04/14 10:04:08;;;;;;;3.72;1.33;;;8.60;34.10;;;;;;5011615;28;20076;-73
2021/04/14 10:06:35;;;;;;;6.88;1.73;;;8.70;33.70;;;;;;5012474;28;20038;-76
2021/04/14 10:09:05;;;;;;;3.55;1.60;;;8.80;32.90;;;;;;5012604;28;20032;-75
2021/04/14 10:11:37;;;;;;;5.47;1.70;;;9.10;32.50;;;;;;5012524;28;20483;-74
2021/04/14 10:14:16;;;;;;;3.92;1.50;;;9.60;32.20;;;;;;5012381;28;20045;-74
2021/04/14 10:16:42;;;;;;;3.22;1.50;;;10.00;31.80;;;;;;5012616;28;20079;-74
2021/04/14 10:19:13;;;;;;;4.63;2.03;;;10.10;31.50;;;;;;5012365;28;20052;-73
2021/04/14 10:21:42;;;;;;;4.25;2.05;;;10.00;31.40;;;;;;5012639;28;20030;-76
2021/04/14 10:24:12;;;;;;;3.80;1.70;;;9.80;31.20;;;;;;5012411;28;20026;-76
2021/04/14 10:26:47;;;;;;;2.83;1.67;;;9.60;31.20;;;;;;5012596;28;20021;-74
2021/04/14 10:29:13;;;;;;;4.55;1.73;;;9.40;31.50;;;;;;5012565;28;20026;-74
2021/04/14 10:31:39;;;;;;;5.00;2.00;;;9.30;32.00;;;;;;5012636;28;20030;-73
2021/04/14 10:34:12;;;;;;;6.60;2.42;;;9.30;32.20;;;;;;5012310;28;20041;-75
2021/04/14 10:36:41;;;;;;;4.85;1.45;;;9.30;32.10;;;;;;5012680;28;20471;-74
2021/04/14 10:39:19;;;;;;;8.02;1.80;;;9.30;32.00;;;;;;5012578;28;20379;-74
2021/04/14 10:41:46;;;;;;;2.28;1.38;;;9.30;32.00;;;;;;5012555;28;20026;-74
2021/04/14 10:44:21;;;;;;;3.70;1.65;;;9.30;32.20;;;;;;5012453;28;20069;-73
2021/04/14 10:46:47;;;;;;;4.53;1.55;;;9.20;32.20;;;;;;4994877;28;20033;-74
2021/04/14 10:49:24;;;;;;;4.22;1.85;;;9.20;32.40;;;;;;5012524;28;20302;-74
2021/04/14 10:51:53;;;;;;;3.60;1.52;;;9.10;32.30;;;;;;5012297;28;20479;-73
2021/04/14 10:54:28;;;;;;;4.53;1.80;;;9.10;32.30;;;;;;5012332;28;20033;-74
2021/04/14 10:57:07;;;;;;;4.82;2.00;;;9.10;32.50;;;;;;5015834;28;20470;-73
2021/04/14 10:59:34;;;;;;;4.93;1.73;;;9.10;32.70;;;;;;5015731;28;20033;-75
2021/04/14 11:02:07;;;;;;;3.92;1.75;;;9.10;32.90;;;;;;5015742;28;20022;-74
2021/04/14 11:04:37;;;;;;;4.18;1.85;;;9.20;32.90;;;;;;5015644;28;20050;-73
2021/04/14 11:07:07;;;;;;;5.07;1.67;;;9.20;32.70;;;;;;5015769;28;20026;-73
2021/04/14 11:09:38;;;;;;;4.57;1.67;;;9.10;32.30;;;;;;5015728;28;20022;-73
2021/04/14 11:12:11;;;;;;;4.55;1.65;;;9.10;31.80;;;;;;5015597;28;20022;-73
2021/04/14 11:14:40;;;;;;;3.00;2.05;;;9.50;32.00;;;;;;5015613;28;20566;-73
2021/04/14 11:17:07;;;;;;;4.22;2.10;;;9.30;32.00;;;;;;5015748;28;20022;-73
2021/04/14 11:19:34;;;;;;;5.13;2.30;;;8.90;32.50;;;;;;5015633;28;20410;-74
2021/04/14 11:22:09;;;;;;;7.00;2.47;;;8.70;32.80;;;;;;5015593;28;20440;-75
2021/04/14 11:24:49;;;;;;;6.00;2.50;;;8.70;32.80;;;;;;5015593;28;20522;-75
2021/04/14 11:27:30;;;;;;;5.38;2.22;;;8.60;32.80;;;;;;5015428;28;20121;-75
2021/04/14 11:30:15;;;;;;;3.78;2.40;;;8.50;32.70;;;;;;5015174;28;20025;-75
2021/04/14 11:32:51;;;;;;;3.65;1.75;;;8.40;33.00;;;;;;5015072;28;20069;-75
2021/04/14 11:35:28;;;;;;;3.25;2.20;;;8.30;33.30;;;;;;5015249;28;20483;-72
2021/04/14 11:37:53;;;;;;;6.65;2.00;;;8.20;33.60;;;;;;5015164;28;20564;-73
2021/04/14 11:40:19;;;;;;;2.78;1.85;;;8.20;34.10;;;;;;4997631;28;20026;-73
2021/04/14 11:42:50;;;;;;;4.68;1.92;;;8.30;34.20;;;;;;5014914;28;20053;-74
2021/04/14 11:45:36;;;;;;;4.65;2.22;;;8.20;34.10;;;;;;5015055;28;20419;-73
2021/04/14 11:48:15;;;;;;;;;;;8.30;34.10;;;;;;5015363;28;20153;-73
2021/04/14 11:50:43;;;;;;;8.50;2.47;;;8.40;33.90;;;;;;5014836;28;19913;-74
2021/04/14 11:53:23;;;;;;;5.10;1.70;;;8.40;33.40;;;;;;5014848;28;20040;-75
2021/04/14 11:55:49;;;;;;;5.60;2.22;;;8.60;33.40;;;;;;5015039;28;20497;-73
2021/04/14 11:58:36;;;;;;;5.05;2.20;;;8.70;33.20;;;;;;5015072;28;20038;-72
2021/04/14 12:01:02;;;;;;;5.13;2.13;;;8.70;32.90;;;;;;5014895;28;20030;-73
2021/04/14 12:03:38;;;;;;;3.72;1.75;;;8.80;32.80;;;;;;5014726;28;20033;-74
2021/04/14 12:06:04;;;;;;;5.80;2.47;;;8.30;33.30;;;;;;5014450;28;20048;-74
2021/04/14 12:08:30;;;;;;;6.35;2.58;;;8.00;34.20;;;;;;5014611;28;20030;-73
2021/04/14 12:10:57;;;;;;;7.32;2.08;;;8.00;34.30;;;;;;5014670;28;20080;-73
2021/04/14 12:13:23;;;;;;;2.92;1.88;;;8.00;34.50;;;;;;5014471;28;20113;-74
2021/04/14 12:15:50;;;;;;;6.43;2.10;;;7.90;34.40;;;;;;5014446;28;20151;-73
2021/04/14 12:18:16;;;;;;;5.03;2.28;;;7.90;34.50;;;;;;5014573;28;20033;-74
2021/04/14 12:20:42;;;;;;;7.68;2.10;;;7.80;34.50;;;;;;5014340;28;20064;-76
2021/04/14 12:23:08;;;;;;;6.18;2.38;;;7.80;34.60;;;;;;5014466;28;20065;-74
2021/04/14 12:25:33;;;;;;;4.05;1.90;;;7.70;34.80;;;;;;5015325;28;20026;-75
2021/04/14 12:27:59;;;;;;;3.78;2.08;;;7.60;34.80;;;;;;5016491;28;20088;-76
2021/04/14 12:30:27;;;;;;;6.22;2.30;;;7.70;35.00;;;;;;5015155;28;20479;-74
2021/04/14 12:32:53;;;;;;;6.32;2.40;;;7.70;35.20;;;;;;5014289;28;20118;-74
2021/04/14 12:35:20;;;;;;;4.30;2.17;;;7.60;35.20;;;;;;5014395;28;20109;-73
2021/04/14 12:37:46;;;;;;;2.63;1.63;;;7.60;35.50;;;;;;5014255;28;20037;-75
2021/04/14 12:40:13;;;;;;;5.47;2.60;;;7.70;35.80;;;;;;5013811;28;20022;-75
2021/04/14 12:42:39;;;;;;;4.43;2.17;;;7.70;35.90;;;;;;5013849;28;20057;-75
2021/04/14 12:45:21;;;;;;;4.72;2.20;;;7.80;35.80;;;;;;5014218;28;20054;-74
2021/04/14 12:47:46;;;;;;;5.82;2.15;;;7.90;36.00;;;;;;5014438;28;20026;-74
2021/04/14 12:50:12;;;;;;;7.20;2.60;;;7.70;36.60;;;;;;4996619;28;20041;-73
2021/04/14 12:52:44;;;;;;;11.20;3.97;;;7.60;37.30;;;;;;5014213;28;20026;-74
2021/04/14 12:55:17;;;;;;;8.57;3.20;;;7.60;38.00;;;;;;5014405;28;20033;-74
2021/04/14 12:57:43;;;;;;;7.55;2.75;;;7.60;38.50;;;;;;5014390;28;20486;-74
2021/04/14 13:00:16;;;;;;;5.50;2.60;;;7.50;39.00;;;;;;5015411;28;20394;-73
2021/04/14 13:02:57;;;;;;;4.32;2.17;;;7.50;39.70;;;;;;5015837;28;20045;-74
2021/04/14 13:05:41;;;;;;;5.75;2.67;;;7.60;40.10;;;;;;5018077;28;20056;-76
2021/04/14 13:08:13;;;;;;;5.95;2.35;;;7.60;40.90;;;;;;5015595;28;20084;-75
2021/04/14 13:10:44;;;;;;;8.07;3.00;;;7.70;41.30;;;;;;5021716;28;20029;-76